createdAt,value
2019-03-19T00:00:15.167Z,11.77
2019-03-19T00:02:43.880Z,8.60
2019-03-19T00:05:12.413Z,7.27
2019-03-19T00:07:40.849Z,6.40
2019-03-19T00:10:09.913Z,8.70
2019-03-19T00:12:38.320Z,8.63
2019-03-19T00:15:11.380Z,7.80
2019-03-19T00:17:39.833Z,6.90
2019-03-19T00:20:13.679Z,8.17
2019-03-19T00:22:42.084Z,7.93
2019-03-19T00:25:10.697Z,7.93
2019-03-19T00:27:39.281Z,6.37
2019-03-19T00:30:15.730Z,7.37
2019-03-19T00:32:44.345Z,7.17
2019-03-19T00:35:13.420Z,8.27
2019-03-19T00:37:41.870Z,6.87
2019-03-19T00:40:12.537Z,7.93
2019-03-19T00:42:41.017Z,7.67
2019-03-19T00:45:11.650Z,8.80
2019-03-19T00:47:40.064Z,9.30
2019-03-19T00:50:11.073Z,7.13
2019-03-19T00:52:39.486Z,10.87
2019-03-19T00:55:08.975Z,9.73
2019-03-19T00:57:37.502Z,9.27
2019-03-19T01:00:17.425Z,7.20
2019-03-19T01:02:45.931Z,6.63
2019-03-19T01:05:14.850Z,7.53
2019-03-19T01:07:43.456Z,6.73
2019-03-19T01:10:16.994Z,6.80
2019-03-19T01:12:44.567Z,9.27
2019-03-19T01:15:13.838Z,7.23
2019-03-19T01:17:42.331Z,8.37
2019-03-19T01:20:12.947Z,6.57
2019-03-19T01:22:41.422Z,8.20
2019-03-19T01:25:10.707Z,11.63
2019-03-19T01:27:39.287Z,7.63
2019-03-19T01:30:13.261Z,11.50
2019-03-19T01:32:41.692Z,9.83
2019-03-19T01:35:10.122Z,8.83
2019-03-19T01:37:38.523Z,5.67
2019-03-19T01:40:09.575Z,7.53
2019-03-19T01:42:38.056Z,9.27
2019-03-19T01:45:09.007Z,8.47
2019-03-19T01:47:37.413Z,7.97
2019-03-19T01:50:08.661Z,7.73
2019-03-19T01:52:37.105Z,6.67
2019-03-19T01:55:08.749Z,9.40
2019-03-19T01:57:37.362Z,8.20
2019-03-19T02:00:08.776Z,6.67
2019-03-19T02:02:37.493Z,6.20
2019-03-19T02:05:06.471Z,7.37
2019-03-19T02:07:35.162Z,8.43
2019-03-19T02:10:04.954Z,7.67
2019-03-19T02:12:35.605Z,5.60
2019-03-19T02:15:04.004Z,10.30
2019-03-19T02:17:32.456Z,10.10
2019-03-19T02:20:01.103Z,8.80
2019-03-19T02:22:29.552Z,10.80
2019-03-19T02:24:58.154Z,7.70
2019-03-19T02:27:26.619Z,10.40
2019-03-19T02:29:55.198Z,12.10
2019-03-19T02:32:23.752Z,9.17
2019-03-19T02:34:52.168Z,13.97
2019-03-19T02:37:20.684Z,10.00
2019-03-19T02:39:49.249Z,9.77
2019-03-19T02:42:17.740Z,10.50
2019-03-19T02:44:46.243Z,10.63
2019-03-19T02:47:14.712Z,10.10
2019-03-19T02:49:43.246Z,7.87
2019-03-19T02:52:11.699Z,8.97
2019-03-19T02:54:40.219Z,9.50
2019-03-19T02:57:08.725Z,8.23
2019-03-19T02:59:37.177Z,12.50
2019-03-19T03:02:05.774Z,10.10
2019-03-19T03:04:34.235Z,11.00
2019-03-19T03:07:02.824Z,8.70
2019-03-19T03:09:31.395Z,9.83
2019-03-19T03:11:59.992Z,8.00
2019-03-19T03:14:28.464Z,7.73
2019-03-19T03:16:56.912Z,6.70
2019-03-19T03:19:25.480Z,9.87
2019-03-19T03:21:53.914Z,7.07
2019-03-19T03:24:22.412Z,12.10
2019-03-19T03:26:50.865Z,8.63
2019-03-19T03:29:19.336Z,9.67
2019-03-19T03:31:47.797Z,9.80
2019-03-19T03:34:16.293Z,12.37
2019-03-19T03:36:44.859Z,8.70
2019-03-19T03:39:13.275Z,12.73
2019-03-19T03:41:41.673Z,7.53
2019-03-19T03:44:10.121Z,9.27
2019-03-19T03:46:38.572Z,11.37
2019-03-19T03:49:09.819Z,7.33
2019-03-19T03:51:41.667Z,7.03
2019-03-19T03:54:09.796Z,12.63
2019-03-19T03:56:38.240Z,9.07
2019-03-19T03:59:06.842Z,8.30
2019-03-19T04:01:35.265Z,9.53
2019-03-19T04:04:03.673Z,8.27
2019-03-19T04:06:32.332Z,9.07
2019-03-19T04:09:00.747Z,8.73
2019-03-19T04:11:29.535Z,8.70
2019-03-19T04:13:58.092Z,7.93
2019-03-19T04:16:26.685Z,11.23
2019-03-19T04:18:55.220Z,10.33
2019-03-19T04:24:02.900Z,10.97
2019-03-19T04:26:31.317Z,8.10
2019-03-19T04:28:59.856Z,9.97
2019-03-19T04:31:28.384Z,10.57
2019-03-19T04:33:56.968Z,10.73
2019-03-19T04:36:25.529Z,12.93
2019-03-19T04:38:54.134Z,9.43
2019-03-19T04:41:22.570Z,12.23
2019-03-19T04:43:48.760Z,14.60
2019-03-19T04:46:14.723Z,8.47
2019-03-19T04:48:41.060Z,10.77
2019-03-19T04:51:07.020Z,7.00
2019-03-19T04:53:32.990Z,7.67
2019-03-19T04:55:58.815Z,9.67
2019-03-19T04:58:24.604Z,12.10
2019-03-19T05:00:50.675Z,15.83
2019-03-19T05:03:16.681Z,9.13
2019-03-19T05:05:42.841Z,10.87
2019-03-19T05:08:08.753Z,12.90
2019-03-19T05:10:34.574Z,9.10
2019-03-19T05:13:00.899Z,14.77
2019-03-19T05:15:27.215Z,8.20
2019-03-19T05:17:53.071Z,13.70
2019-03-19T05:20:19.186Z,9.70
2019-03-19T05:22:44.972Z,15.13
2019-03-19T05:25:11.117Z,14.77
2019-03-19T05:27:38.013Z,16.10
2019-03-19T05:30:07.835Z,13.60
2019-03-19T05:32:33.795Z,16.80
2019-03-19T05:34:59.750Z,13.23
2019-03-19T05:37:25.700Z,12.47
2019-03-19T05:39:51.869Z,11.23
2019-03-19T05:42:17.812Z,12.23
2019-03-19T05:44:43.725Z,8.80
2019-03-19T05:47:09.619Z,9.83
2019-03-19T05:49:35.537Z,10.83
2019-03-19T05:52:01.572Z,10.90
2019-03-19T05:54:27.562Z,12.27
2019-03-19T05:56:53.407Z,11.40
2019-03-19T05:59:19.410Z,13.80
2019-03-19T06:01:45.349Z,12.53
2019-03-19T06:04:11.430Z,9.27
2019-03-19T06:06:37.515Z,11.20
2019-03-19T06:09:05.813Z,9.83
2019-03-19T06:11:31.801Z,11.53
2019-03-19T06:13:57.802Z,15.77
2019-03-19T06:16:23.705Z,16.07
2019-03-19T06:18:49.703Z,9.47
2019-03-19T06:21:15.804Z,15.27
2019-03-19T06:23:41.703Z,16.37
2019-03-19T06:26:07.815Z,12.30
2019-03-19T06:28:35.626Z,11.87
2019-03-19T06:31:01.527Z,17.13
2019-03-19T06:33:27.477Z,20.53
2019-03-19T06:35:53.655Z,13.33
2019-03-19T06:38:19.557Z,13.83
2019-03-19T06:40:45.582Z,13.50
2019-03-19T06:43:11.761Z,18.03
2019-03-19T06:45:37.635Z,14.83
2019-03-19T06:48:03.655Z,10.40
2019-03-19T06:50:29.702Z,17.37
2019-03-19T06:52:55.639Z,14.60
2019-03-19T06:55:21.511Z,16.00
2019-03-19T06:57:47.468Z,13.47
2019-03-19T07:00:19.340Z,15.23
2019-03-19T07:02:45.571Z,19.27
2019-03-19T07:05:12.034Z,14.37
2019-03-19T07:07:38.043Z,15.87
2019-03-19T07:10:12.601Z,15.83
2019-03-19T07:12:38.930Z,19.10
2019-03-19T07:15:08.355Z,18.03
2019-03-19T07:17:34.361Z,16.30
2019-03-19T07:20:00.489Z,20.77
2019-03-19T07:22:26.457Z,21.83
2019-03-19T07:24:52.428Z,14.07
2019-03-19T07:27:18.603Z,17.63
2019-03-19T07:29:44.683Z,15.23
2019-03-19T07:32:10.500Z,13.30
2019-03-19T07:34:36.564Z,17.80
2019-03-19T07:37:02.488Z,17.37
2019-03-19T07:39:28.835Z,18.43
2019-03-19T07:41:54.660Z,15.67
2019-03-19T07:44:20.719Z,22.67
2019-03-19T07:46:46.896Z,22.50
2019-03-19T07:49:12.741Z,18.33
2019-03-19T07:51:38.754Z,16.20
2019-03-19T07:54:04.856Z,15.27
2019-03-19T07:56:30.707Z,18.20
2019-03-19T07:58:56.655Z,17.53
2019-03-19T08:01:24.680Z,18.53
2019-03-19T08:03:50.667Z,17.40
2019-03-19T08:06:16.557Z,15.27
2019-03-19T08:08:42.445Z,19.37
2019-03-19T08:11:08.311Z,18.53
2019-03-19T08:13:34.114Z,22.20
2019-03-19T08:16:00.118Z,20.67
2019-03-19T08:18:26.114Z,18.30
2019-03-19T08:20:52.156Z,24.33
2019-03-19T08:23:17.957Z,19.80
2019-03-19T08:25:43.777Z,24.77
2019-03-19T08:28:09.791Z,19.13
2019-03-19T08:30:35.682Z,22.30
2019-03-19T08:33:01.730Z,22.70
2019-03-19T08:35:27.595Z,21.30
2019-03-19T08:37:53.394Z,24.00
2019-03-19T08:40:19.869Z,23.33
2019-03-19T08:42:46.011Z,19.47
2019-03-19T08:45:15.845Z,19.00
2019-03-19T08:47:41.656Z,22.03
2019-03-19T08:50:11.033Z,26.47
2019-03-19T08:52:37.072Z,24.33
2019-03-19T08:55:04.208Z,23.13
2019-03-19T08:57:30.091Z,16.15
2019-03-19T08:59:57.207Z,20.45
2019-03-19T09:02:23.194Z,21.23
2019-03-19T09:04:49.165Z,16.23
2019-03-19T09:07:15.137Z,21.65
2019-03-19T09:09:41.133Z,20.97
2019-03-19T09:12:07.107Z,20.37
2019-03-19T09:14:33.176Z,19.45
2019-03-19T09:16:59.199Z,20.08
2019-03-19T09:19:25.104Z,19.37
2019-03-19T09:21:51.173Z,22.40
2019-03-19T09:24:17.319Z,12.82
2019-03-19T09:26:43.514Z,24.45
2019-03-19T09:29:16.924Z,21.68
2019-03-19T09:31:37.763Z,14.50
2019-03-19T09:34:03.755Z,18.15
2019-03-19T09:36:29.761Z,18.17
2019-03-19T09:38:55.673Z,22.60
2019-03-19T09:41:21.703Z,14.18
2019-03-19T09:43:47.676Z,22.10
2019-03-19T09:46:13.566Z,20.70
2019-03-19T09:48:39.566Z,19.30
2019-03-19T09:51:05.654Z,20.00
2019-03-19T09:53:31.728Z,16.48
2019-03-19T09:55:57.637Z,15.65
2019-03-19T09:58:23.453Z,17.00
2019-03-19T10:00:49.279Z,19.25
2019-03-19T10:03:15.090Z,15.05
2019-03-19T10:05:41.044Z,11.60
2019-03-19T10:08:06.938Z,14.63
2019-03-19T10:10:32.884Z,13.30
2019-03-19T10:12:58.822Z,18.97
2019-03-19T10:15:24.702Z,15.63
2019-03-19T10:17:50.647Z,17.60
2019-03-19T10:20:20.889Z,17.13
2019-03-19T10:22:46.819Z,15.83
2019-03-19T10:25:13.940Z,13.93
2019-03-19T10:27:39.992Z,14.53
2019-03-19T10:30:12.361Z,11.55
2019-03-19T10:32:38.410Z,13.32
2019-03-19T10:35:05.184Z,18.82
2019-03-19T10:37:31.263Z,13.13
2019-03-19T10:39:57.185Z,10.78
2019-03-19T10:42:23.123Z,11.15
2019-03-19T10:44:49.079Z,12.35
2019-03-19T10:47:14.887Z,16.90
2019-03-19T10:49:40.943Z,12.13
2019-03-19T10:52:06.887Z,8.45
2019-03-19T10:54:32.890Z,12.70
2019-03-19T10:56:58.851Z,14.55
2019-03-19T10:59:24.727Z,15.48
2019-03-19T11:01:51.609Z,14.23
2019-03-19T11:04:17.636Z,12.85
2019-03-19T11:06:43.461Z,11.38
2019-03-19T11:09:09.305Z,11.40
2019-03-19T11:11:35.117Z,18.50
2019-03-19T11:14:01.175Z,15.40
2019-03-19T11:16:27.219Z,19.27
2019-03-19T11:18:53.181Z,14.73
2019-03-19T11:21:19.401Z,18.57
2019-03-19T11:23:45.385Z,18.47
2019-03-19T11:26:11.725Z,13.47
2019-03-19T11:28:37.675Z,14.17
2019-03-19T11:31:03.748Z,13.73
2019-03-19T11:33:29.819Z,14.77
2019-03-19T11:35:55.724Z,12.63
2019-03-19T11:38:21.586Z,12.82
2019-03-19T11:40:47.468Z,10.82
2019-03-19T11:43:13.255Z,18.67
2019-03-19T11:45:39.074Z,10.68
2019-03-19T11:48:04.925Z,8.93
2019-03-19T11:50:33.231Z,8.95
2019-03-19T11:52:58.946Z,11.85
2019-03-19T11:55:25.056Z,13.28
2019-03-19T11:57:51.414Z,15.60
2019-03-19T12:00:29.971Z,9.67
2019-03-19T12:02:56.350Z,14.23
2019-03-19T12:05:22.572Z,13.38
2019-03-19T12:07:48.523Z,15.17
2019-03-19T12:10:14.458Z,12.57
2019-03-19T12:12:40.417Z,10.77
2019-03-19T12:15:09.182Z,12.83
2019-03-19T12:17:35.133Z,13.17
2019-03-19T12:20:01.157Z,15.40
2019-03-19T12:22:26.996Z,16.53
2019-03-19T12:24:52.829Z,11.13
2019-03-19T12:27:18.640Z,10.57
2019-03-19T12:29:44.654Z,11.27
2019-03-19T12:32:10.541Z,11.17
2019-03-19T12:34:36.435Z,12.97
2019-03-19T12:37:03.044Z,13.53
2019-03-19T12:39:28.853Z,13.03
2019-03-19T12:41:54.777Z,10.23
2019-03-19T12:44:20.913Z,11.07
2019-03-19T12:46:47.129Z,14.03
2019-03-19T12:49:13.126Z,8.95
2019-03-19T12:51:39.104Z,14.23
2019-03-19T12:54:05.071Z,13.60
2019-03-19T12:56:31.020Z,14.13
2019-03-19T12:58:56.959Z,11.45
2019-03-19T13:01:22.837Z,13.15
2019-03-19T13:03:48.961Z,9.88
2019-03-19T13:06:14.782Z,13.73
2019-03-19T13:08:40.806Z,24.47
2019-03-19T13:11:06.714Z,17.33
2019-03-19T13:13:32.567Z,15.03
2019-03-19T13:15:58.715Z,12.00
2019-03-19T13:18:24.544Z,13.17
2019-03-19T13:20:50.675Z,15.37
2019-03-19T13:23:16.676Z,13.63
2019-03-19T13:25:42.931Z,12.43
2019-03-19T13:28:08.945Z,15.57
2019-03-19T13:30:44.554Z,14.70
2019-03-19T13:33:03.121Z,13.87
2019-03-19T13:35:29.339Z,13.63
2019-03-19T13:37:55.358Z,11.33
2019-03-19T13:40:21.721Z,12.23
2019-03-19T13:42:47.717Z,12.80
2019-03-19T13:45:21.929Z,10.13
2019-03-19T13:47:47.962Z,10.93
2019-03-19T13:50:17.957Z,12.63
2019-03-19T13:52:44.133Z,8.83
2019-03-19T13:55:13.150Z,14.63
2019-03-19T13:57:39.084Z,13.07
2019-03-19T14:00:10.785Z,11.13
2019-03-19T14:02:36.706Z,10.10
2019-03-19T14:05:05.329Z,12.13
2019-03-19T14:07:31.213Z,11.40
2019-03-19T14:09:57.152Z,13.17
2019-03-19T14:12:23.029Z,12.67
2019-03-19T14:14:48.868Z,12.47
2019-03-19T14:17:14.776Z,17.70
2019-03-19T14:19:40.736Z,11.97
2019-03-19T14:22:06.796Z,18.13
2019-03-19T14:24:32.679Z,15.90
2019-03-19T14:26:58.472Z,15.53
2019-03-19T14:29:24.411Z,11.77
2019-03-19T14:31:50.361Z,14.83
2019-03-19T14:34:16.344Z,15.53
2019-03-19T14:36:42.301Z,11.10
2019-03-19T14:39:08.329Z,9.13
2019-03-19T14:41:34.360Z,19.73
2019-03-19T14:44:00.280Z,10.47
2019-03-19T14:46:26.190Z,12.90
2019-03-19T14:48:52.389Z,12.67
2019-03-19T14:51:18.301Z,14.37
2019-03-19T14:53:44.468Z,13.03
2019-03-19T14:56:10.349Z,13.67
2019-03-19T14:58:36.304Z,13.20
2019-03-19T15:01:02.521Z,13.00
2019-03-19T15:03:28.429Z,14.70
2019-03-19T15:05:54.200Z,13.03
2019-03-19T15:08:20.227Z,12.63
2019-03-19T15:10:46.480Z,12.63
2019-03-19T15:13:12.399Z,13.07
2019-03-19T15:15:38.361Z,11.70
2019-03-19T15:18:04.464Z,16.50
2019-03-19T15:20:30.480Z,15.23
2019-03-19T15:22:56.721Z,15.60
2019-03-19T15:25:22.575Z,15.53
2019-03-19T15:27:48.628Z,16.20
2019-03-19T15:30:17.209Z,14.50
2019-03-19T15:32:43.720Z,16.93
2019-03-19T15:35:10.352Z,16.63
2019-03-19T15:37:36.828Z,12.27
2019-03-19T15:40:08.623Z,9.60
2019-03-19T15:42:34.391Z,13.60
2019-03-19T15:45:00.359Z,12.87
2019-03-19T15:47:26.403Z,13.70
2019-03-19T15:49:52.244Z,14.70
2019-03-19T15:52:18.213Z,13.27
2019-03-19T15:54:44.347Z,12.33
2019-03-19T15:57:10.184Z,14.20
2019-03-19T15:59:35.982Z,17.43
2019-03-19T16:02:01.847Z,16.00
2019-03-19T16:04:27.829Z,14.47
2019-03-19T16:06:53.932Z,10.80
2019-03-19T16:09:19.854Z,13.90
2019-03-19T16:11:45.783Z,18.10
2019-03-19T16:14:11.844Z,14.07
2019-03-19T16:16:37.789Z,15.67
2019-03-19T16:19:03.773Z,13.87
2019-03-19T16:21:29.709Z,14.87
2019-03-19T16:23:55.729Z,10.93
2019-03-19T16:26:21.768Z,19.13
2019-03-19T16:28:47.615Z,13.10
2019-03-19T16:31:13.397Z,20.97
2019-03-19T16:33:39.457Z,20.13
2019-03-19T16:36:05.449Z,15.77
2019-03-19T16:38:33.510Z,14.20
2019-03-19T16:40:59.545Z,17.77
2019-03-19T16:43:25.545Z,13.20
2019-03-19T16:45:51.455Z,15.40
2019-03-19T16:48:17.496Z,12.93
2019-03-19T16:50:43.419Z,16.13
2019-03-19T16:53:09.421Z,17.03
2019-03-19T16:55:35.500Z,16.97
2019-03-19T16:58:01.423Z,12.53
2019-03-19T17:00:28.018Z,12.40
2019-03-19T17:02:53.828Z,18.20
2019-03-19T17:05:19.993Z,13.37
2019-03-19T17:07:46.021Z,12.30
2019-03-19T17:10:14.002Z,14.60
2019-03-19T17:12:42.047Z,10.67
2019-03-19T17:15:13.046Z,13.83
2019-03-19T17:17:38.919Z,14.87
2019-03-19T17:20:08.371Z,13.97
2019-03-19T17:22:34.367Z,19.15
2019-03-19T17:25:01.808Z,16.30
2019-03-19T17:27:27.773Z,16.50
2019-03-19T17:29:53.768Z,15.30
2019-03-19T17:32:19.760Z,11.90
2019-03-19T17:34:45.821Z,10.80
2019-03-19T17:37:12.053Z,15.90
2019-03-19T17:39:37.979Z,16.70
2019-03-19T17:42:04.107Z,16.83
2019-03-19T17:44:30.308Z,13.20
2019-03-19T17:46:56.214Z,14.77
2019-03-19T17:49:22.030Z,11.87
2019-03-19T17:51:47.913Z,13.00
2019-03-19T17:54:13.863Z,10.10
2019-03-19T17:56:39.679Z,13.37
2019-03-19T17:59:05.749Z,18.70
2019-03-19T18:01:31.802Z,14.70
2019-03-19T18:03:57.839Z,16.37
2019-03-19T18:06:23.609Z,19.60
2019-03-19T18:08:49.673Z,13.90
2019-03-19T18:11:15.743Z,19.07
2019-03-19T18:13:41.721Z,17.87
2019-03-19T18:16:07.810Z,15.97
2019-03-19T18:18:33.787Z,16.03
2019-03-19T18:20:59.836Z,16.20
2019-03-19T18:23:26.029Z,16.17
2019-03-19T18:25:52.060Z,21.13
2019-03-19T18:28:18.091Z,18.67
2019-03-19T18:30:44.261Z,26.87
2019-03-19T18:33:10.291Z,34.23
2019-03-19T18:35:36.264Z,23.10
2019-03-19T18:38:02.241Z,32.63
2019-03-19T18:40:28.204Z,21.93
2019-03-19T18:42:54.173Z,23.87
2019-03-19T18:45:20.750Z,25.57
2019-03-19T18:47:46.592Z,29.87
2019-03-19T18:50:17.213Z,29.57
2019-03-19T18:52:43.280Z,26.87
2019-03-19T18:55:09.279Z,22.67
2019-03-19T18:57:35.457Z,18.53
2019-03-19T19:00:01.605Z,23.20
2019-03-19T19:02:27.607Z,26.33
2019-03-19T19:04:53.771Z,26.77
2019-03-19T19:07:19.821Z,27.20
2019-03-19T19:09:46.119Z,23.33
2019-03-19T19:12:12.164Z,19.50
2019-03-19T19:14:38.499Z,23.20
2019-03-19T19:17:04.592Z,30.63
2019-03-19T19:19:30.556Z,30.40
2019-03-19T19:21:56.381Z,32.10
2019-03-19T19:24:22.433Z,34.00
2019-03-19T19:26:48.296Z,31.50
2019-03-19T19:29:14.316Z,26.57
2019-03-19T19:31:40.510Z,33.83
2019-03-19T19:34:06.424Z,21.97
2019-03-19T19:36:32.272Z,24.70
2019-03-19T19:38:58.379Z,24.47
2019-03-19T19:41:24.252Z,22.67
2019-03-19T19:43:50.126Z,25.70
2019-03-19T19:46:16.154Z,23.50
2019-03-19T19:48:42.110Z,22.80
2019-03-19T19:51:08.097Z,22.87
2019-03-19T19:53:34.199Z,25.50
2019-03-19T19:56:00.464Z,20.60
2019-03-19T19:58:26.375Z,18.70
2019-03-19T20:00:52.305Z,17.93
2019-03-19T20:03:18.225Z,23.83
2019-03-19T20:05:44.238Z,24.70
2019-03-19T20:08:10.229Z,21.57
2019-03-19T20:10:37.877Z,25.27
2019-03-19T20:13:04.293Z,22.90
2019-03-19T20:15:30.217Z,22.07
2019-03-19T20:17:56.267Z,28.93
2019-03-19T20:20:25.420Z,24.30
2019-03-19T20:22:51.371Z,27.77
2019-03-19T20:25:17.436Z,22.43
2019-03-19T20:27:43.543Z,29.10
2019-03-19T20:30:20.468Z,27.27
2019-03-19T20:32:46.716Z,25.50
2019-03-19T20:35:12.713Z,25.50
2019-03-19T20:37:38.848Z,25.80
2019-03-19T20:40:11.183Z,24.53
2019-03-19T20:42:37.130Z,29.23
2019-03-19T20:45:11.741Z,25.93
2019-03-19T20:47:37.689Z,28.27
2019-03-19T20:50:09.788Z,27.43
2019-03-19T20:52:36.088Z,23.33
2019-03-19T20:55:02.635Z,21.33
2019-03-19T20:57:28.716Z,25.67
2019-03-19T20:59:54.996Z,27.60
2019-03-19T21:02:21.098Z,26.20
2019-03-19T21:04:49.895Z,24.53
2019-03-19T21:07:17.050Z,31.63
2019-03-19T21:09:42.985Z,24.97
2019-03-19T21:12:08.866Z,30.00
2019-03-19T21:14:34.866Z,32.97
2019-03-19T21:17:00.909Z,32.87
2019-03-19T21:19:26.918Z,34.43
2019-03-19T21:21:52.767Z,32.17
2019-03-19T21:24:18.682Z,33.27
2019-03-19T21:26:44.710Z,32.50
2019-03-19T21:29:10.939Z,30.17
2019-03-19T21:31:37.145Z,37.30
2019-03-19T21:34:02.993Z,33.17
2019-03-19T21:36:28.982Z,29.93
2019-03-19T21:38:55.108Z,31.17
2019-03-19T21:41:21.074Z,30.67
2019-03-19T21:43:47.139Z,28.13
2019-03-19T21:46:13.454Z,30.80
2019-03-19T21:48:39.538Z,26.23
2019-03-19T21:51:05.539Z,33.70
2019-03-19T21:53:31.684Z,35.90
2019-03-19T21:55:57.748Z,28.37
2019-03-19T21:58:23.751Z,33.07
2019-03-19T22:00:49.777Z,31.77
2019-03-19T22:03:15.783Z,34.90
2019-03-19T22:05:41.773Z,33.13
2019-03-19T22:08:07.720Z,32.53
2019-03-19T22:10:33.718Z,29.60
2019-03-19T22:12:59.560Z,33.00
2019-03-19T22:15:25.525Z,27.03
2019-03-19T22:17:51.701Z,34.37
2019-03-19T22:20:17.536Z,32.53
2019-03-19T22:22:43.532Z,35.13
2019-03-19T22:25:11.298Z,34.13
2019-03-19T22:27:37.252Z,31.10
2019-03-19T22:30:12.474Z,24.60
2019-03-19T22:32:38.720Z,26.67
2019-03-19T22:35:05.462Z,26.40
2019-03-19T22:37:31.754Z,23.57
2019-03-19T22:39:59.890Z,26.67
2019-03-19T22:42:25.754Z,25.40
2019-03-19T22:44:51.568Z,30.63
2019-03-19T22:47:17.516Z,22.93
2019-03-19T22:49:43.747Z,23.20
2019-03-19T22:52:10.071Z,28.37
2019-03-19T22:54:37.014Z,22.40
2019-03-19T22:57:03.441Z,26.10
2019-03-19T22:59:29.530Z,18.57
2019-03-19T23:01:55.744Z,20.00
2019-03-19T23:04:27.218Z,24.50
2019-03-19T23:06:50.370Z,23.63
2019-03-19T23:09:16.551Z,17.33
2019-03-19T23:11:42.467Z,23.17
2019-03-19T23:14:08.564Z,20.87
2019-03-19T23:16:34.444Z,23.63
2019-03-19T23:19:00.521Z,20.60
2019-03-19T23:21:26.955Z,21.70
2019-03-19T23:23:53.032Z,21.83
2019-03-19T23:26:18.920Z,17.83
2019-03-19T23:28:44.888Z,20.93
2019-03-19T23:31:10.944Z,24.47
2019-03-19T23:33:36.932Z,17.37
2019-03-19T23:36:03.107Z,23.73
2019-03-19T23:38:29.026Z,18.60
2019-03-19T23:40:54.979Z,18.27
2019-03-19T23:43:21.002Z,21.47
2019-03-19T23:45:46.938Z,28.27
2019-03-19T23:48:12.758Z,27.33
2019-03-19T23:50:38.740Z,23.00
2019-03-19T23:53:04.921Z,23.30
2019-03-19T23:55:30.916Z,25.73
2019-03-19T23:57:56.914Z,18.43
